地図

経路データ

SID SEASON NUMBER BASIN SUBBASIN NAME ISO_TIME NATURE LAT LON WMO_WIND WMO_PRES WMO_AGENCY TRACK_TYPE DIST2LAND LANDFALL IFLAG USA_AGENCY USA_ATCF_ID USA_LAT USA_LON USA_RECORD USA_STATUS USA_WIND USA_PRES USA_SSHS USA_R34_NE USA_R34_SE USA_R34_SW USA_R34_NW USA_R50_NE USA_R50_SE USA_R50_SW USA_R50_NW USA_R64_NE USA_R64_SE USA_R64_SW USA_R64_NW USA_POCI USA_ROCI USA_RMW USA_EYE TOKYO_LAT TOKYO_LON TOKYO_GRADE TOKYO_WIND TOKYO_PRES TOKYO_R50_DIR TOKYO_R50_LONG TOKYO_R50_SHORT TOKYO_R30_DIR TOKYO_R30_LONG TOKYO_R30_SHORT TOKYO_LAND CMA_LAT CMA_LON CMA_CAT CMA_WIND CMA_PRES HKO_LAT HKO_LON HKO_CAT HKO_WIND HKO_PRES NEWDELHI_LAT NEWDELHI_LON NEWDELHI_GRADE NEWDELHI_WIND NEWDELHI_PRES NEWDELHI_CI NEWDELHI_DP NEWDELHI_POCI REUNION_LAT REUNION_LON REUNION_TYPE REUNION_WIND REUNION_PRES REUNION_TNUM REUNION_CI REUNION_RMW REUNION_R34_NE REUNION_R34_SE REUNION_R34_SW REUNION_R34_NW REUNION_R50_NE REUNION_R50_SE REUNION_R50_SW REUNION_R50_NW REUNION_R64_NE REUNION_R64_SE REUNION_R64_SW REUNION_R64_NW BOM_LAT BOM_LON BOM_TYPE BOM_WIND BOM_PRES BOM_TNUM BOM_CI BOM_RMW BOM_R34_NE BOM_R34_SE BOM_R34_SW BOM_R34_NW BOM_R50_NE BOM_R50_SE BOM_R50_SW BOM_R50_NW BOM_R64_NE BOM_R64_SE BOM_R64_SW BOM_R64_NW BOM_ROCI BOM_POCI BOM_EYE BOM_POS_METHOD BOM_PRES_METHOD NADI_LAT NADI_LON NADI_CAT NADI_WIND NADI_PRES WELLINGTON_LAT WELLINGTON_LON WELLINGTON_WIND WELLINGTON_PRES DS824_LAT DS824_LON DS824_STAGE DS824_WIND DS824_PRES TD9636_LAT TD9636_LON TD9636_STAGE TD9636_WIND TD9636_PRES TD9635_LAT TD9635_LON TD9635_WIND TD9635_PRES TD9635_ROCI NEUMANN_LAT NEUMANN_LON NEUMANN_CLASS NEUMANN_WIND NEUMANN_PRES MLC_LAT MLC_LON MLC_CLASS MLC_WIND MLC_PRES USA_GUST BOM_GUST BOM_GUST_PER REUNION_GUST REUNION_GUST_PER USA_SEAHGT USA_SEARAD_NE USA_SEARAD_SE USA_SEARAD_SW USA_SEARAD_NW STORM_SPEED STORM_DIR
1893021S14059 1893 5 SI MM NOT_NAMED 1893-01-21 06:00:00 NR -13.6500 59.3000 reunion main 747 736 _____O____O___ -1 -13.4000 59.6000 99 9.90000 -13.9000 59.0000 7 1 220
1893021S14059 1893 5 SI MM NOT_NAMED 1893-01-21 09:00:00 NR -13.6932 59.2660 main 736 733 _____P____P___ -1 -13.3720 59.6863 99 -14.0143 58.8457 7 1 218
1893021S14059 1893 5 SI MM NOT_NAMED 1893-01-21 12:00:00 NR -13.7383 59.2245 main 733 722 _____P____P___ -1 -13.3539 59.7560 99 -14.1228 58.6930 7 1 226
1893021S14059 1893 5 SI MM NOT_NAMED 1893-01-21 15:00:00 NR -13.7876 59.1683 main 722 720 _____P____P___ -1 -13.3554 59.7927 99 -14.2199 58.5439 7 2 231
1893021S14059 1893 5 SI MM NOT_NAMED 1893-01-21 18:00:00 NR -13.8432 59.0899 main 720 707 _____P____O___ -1 -13.3863 59.7799 99 -14.3000 58.4000 7 2 236
1893021S14059 1893 5 SI MM NOT_NAMED 1893-01-21 21:00:00 NR -13.9098 58.9797 main 707 692 _____P____P___ -1 -13.4565 59.7010 99 -14.3631 58.2584 7 3 239
1893021S14059 1893 5 SI MM NOT_NAMED 1893-01-22 00:00:00 NR -14.0038 58.8179 main 692 678 _____P____P___ -1 -13.5758 59.5393 99 -14.4319 58.0964 7 5 239
1893021S14059 1893 5 SI MM NOT_NAMED 1893-01-22 03:00:00 NR -14.1443 58.5822 main 678 652 _____P____P___ -1 -13.7537 59.2780 99 -14.5348 57.8863 7 7 238
1893021S14059 1893 5 SI MM NOT_NAMED 1893-01-22 06:00:00 NR -14.3500 58.2500 reunion main 652 615 _____O____O___ -1 -14.0000 58.9000 99 9.90000 -14.7000 57.6000 7 9 237
1893021S14059 1893 5 SI MM NOT_NAMED 1893-01-22 09:00:00 NR -14.6400 57.8038 main 615 571 _____P____P___ -1 -14.3195 58.3950 99 -14.9605 57.2125 7 12 236
1893021S14059 1893 5 SI MM NOT_NAMED 1893-01-22 12:00:00 NR -14.9911 57.2652 main 571 532 _____P____P___ -1 -14.6994 57.7826 99 -15.2828 56.7479 7 13 236
1893021S14059 1893 5 SI MM NOT_NAMED 1893-01-22 15:00:00 NR -15.3806 56.6620 main 532 503 _____P____P___ -1 -15.1226 57.0898 99 -15.6386 56.2342 7 14 236
1893021S14059 1893 5 SI MM NOT_NAMED 1893-01-22 18:00:00 NR -15.7860 56.0221 main 506 489 _____P____O___ -1 -15.5720 56.3441 99 -16.0000 55.7000 7 15 237
1893021S14059 1893 5 SI MM NOT_NAMED 1893-01-22 21:00:00 NR -16.1860 55.3714 main 489 476 _____P____P___ -1 -16.0306 55.5736 99 -16.3413 55.1692 7 15 238
1893021S14059 1893 5 SI MM NOT_NAMED 1893-01-23 00:00:00 NR -16.5812 54.7173 main 468 419 _____P____P___ -1 -16.4821 54.8068 99 -16.6802 54.6278 7 15 238
1893021S14059 1893 5 SI MM NOT_NAMED 1893-01-23 03:00:00 NR -16.9571 54.0850 main 424 380 _____P____P___ -1 -16.9104 54.0725 99 -17.0039 54.0974 7 14 238
1893021S14059 1893 5 SI MM NOT_NAMED 1893-01-23 06:00:00 NR -17.3000 53.5000 reunion main 380 351 _____O____O___ -1 -17.3000 53.4000 99 9.90000 -17.3000 53.6000 7 12 238
1893021S14059 1893 5 SI MM NOT_NAMED 1893-01-23 09:00:00 NR -17.5830 53.0278 main 347 317 _____P____P___ -1 -17.6048 52.8962 99 -17.5613 53.1593 7 10 238
1893021S14059 1893 5 SI MM NOT_NAMED 1893-01-23 12:00:00 NR -17.8374 52.5990 main 317 287 _____P____P___ -1 -17.8806 52.4439 99 -17.7942 52.7542 7 9 238
1893021S14059 1893 5 SI MM NOT_NAMED 1893-01-23 15:00:00 NR -18.0678 52.2029 main 289 252 _____P____P___ -1 -18.1305 52.0339 99 -18.0051 52.3720 7 9 239
1893021S14059 1893 5 SI MM NOT_NAMED 1893-01-23 18:00:00 NR -18.2789 51.8286 main 252 222 _____P____O___ -1 -18.3579 51.6572 99 -18.2000 52.0000 7 8 240
1893021S14059 1893 5 SI MM NOT_NAMED 1893-01-23 21:00:00 NR -18.4774 51.4611 main 224 184 _____P____P___ -1 -18.5656 51.3047 99 -18.3891 51.6174 7 8 241
1893021S14059 1893 5 SI MM NOT_NAMED 1893-01-24 00:00:00 NR -18.6606 51.1046 main 187 162 _____P____P___ -1 -18.7567 50.9671 99 -18.5646 51.2420 7 8 242
1893021S14059 1893 5 SI MM NOT_NAMED 1893-01-24 03:00:00 NR -18.8334 50.7529 main 162 130 _____P____P___ -1 -18.9339 50.6353 99 -18.7328 50.8706 7 7 243
1893021S14059 1893 5 SI MM NOT_NAMED 1893-01-24 06:00:00 NR -19.0000 50.4000 reunion main 130 104 _____O____O___ -1 -19.1000 50.3000 99 9.90000 -18.9000 50.5000 7 8 243
1893021S14059 1893 5 SI MM NOT_NAMED 1893-01-24 09:00:00 NR -19.1766 50.0372 main 97 71 _____P____P___ -1 -19.2702 49.9494 99 -19.0829 50.1249 7 8 243
1893021S14059 1893 5 SI MM NOT_NAMED 1893-01-24 12:00:00 NR -19.3454 49.6775 main 71 43 _____P____P___ -1 -19.4261 49.6050 99 -19.2647 49.7499 7 8 244
1893021S14059 1893 5 SI MM NOT_NAMED 1893-01-24 15:00:00 NR -19.5047 49.3176 main 43 20 _____P____P___ -1 -19.5702 49.2603 99 -19.4391 49.3749 7 7 246
1893021S14059 1893 5 SI MM NOT_NAMED 1893-01-24 18:00:00 NR -19.6525 48.9543 main 20 0 _____P____O___ -1 -19.7050 48.9086 99 -19.6000 49.0000 7 7 247
1893021S14059 1893 5 SI MM NOT_NAMED 1893-01-24 21:00:00 NR -19.7858 48.6002 main 0 0 _____P____P___ -1 -19.8330 48.5434 99 -19.7386 48.6569 7 7 249
1893021S14059 1893 5 SI MM NOT_NAMED 1893-01-25 00:00:00 NR -19.9102 48.2337 main 0 0 _____P____P___ -1 -19.9566 48.1581 99 -19.8638 48.3092 7 8 251
1893021S14059 1893 5 SI MM NOT_NAMED 1893-01-25 03:00:00 NR -20.0302 47.8389 main 0 0 _____P____P___ -1 -20.0782 47.7459 99 -19.9821 47.9319 7 8 253
1893021S14059 1893 5 SI MM NOT_NAMED 1893-01-25 06:00:00 NR -20.1500 47.4000 reunion main 0 0 _____O____O___ -1 -20.2000 47.3000 99 9.90000 -20.1000 47.5000 7 10 255
1893021S14059 1893 5 SI MM NOT_NAMED 1893-01-25 09:00:00 NR -20.2739 46.8362 main 0 0 _____P____P___ -1 -20.3185 46.6859 99 -20.2292 46.9866 7 11 258
1893021S14059 1893 5 SI MM NOT_NAMED 1893-01-25 12:00:00 NR -20.3951 46.2207 main 0 0 _____P____P___ -1 -20.4326 46.0240 99 -20.3576 46.4175 7 12 259
1893021S14059 1893 5 SI MM NOT_NAMED 1893-01-25 15:00:00 NR -20.5135 45.5790 main 0 0 _____P____P___ -1 -20.5449 45.3435 99 -20.4822 45.8146 7 12 259
1893021S14059 1893 5 SI MM NOT_NAMED 1893-01-25 18:00:00 NR -20.6292 44.9370 main 0 0 _____P____O___ -1 -20.6584 44.6741 99 -20.6000 45.2000 7 12 260
1893021S14059 1893 5 SI MM NOT_NAMED 1893-01-25 21:00:00 NR -20.7264 44.2654 main 0 0 _____P____P___ -1 -20.7767 44.0454 99 -20.6760 44.4854 7 12 261
1893021S14059 1893 5 SI MM NOT_NAMED 1893-01-26 00:00:00 NR -20.8265 43.6350 main 31 31 _____P____P___ -1 -20.9035 43.4870 99 -20.7494 43.7829 7 11 259
1893021S14059 1893 5 SI MM NOT_NAMED 1893-01-26 03:00:00 NR -20.9455 43.1088 main 69 60 _____P____P___ -1 -21.0432 43.0287 99 -20.8478 43.1890 7 9 252
1893021S14059 1893 5 SI MM NOT_NAMED 1893-01-26 06:00:00 NR -21.1000 42.7500 reunion main 79 79 _____O____O___ -1 -21.2000 42.7000 99 9.90000 -21.0000 42.8000 7 6 228
1893021S14059 1893 5 SI MM NOT_NAMED 1893-01-26 09:00:00 NR -21.3338 42.6490 main 93 75 _____P____P___ -1 -21.4020 42.5769 99 -21.2656 42.7211 7 5 184
1893021S14059 1893 5 SI MM NOT_NAMED 1893-01-26 12:00:00 NR -21.6041 42.7146 main 75 42 _____P____P___ -1 -21.6243 42.5784 99 -21.5838 42.8509 7 6 158
1893021S14059 1893 5 SI MM NOT_NAMED 1893-01-26 15:00:00 NR -21.8852 42.8952 main 42 15 _____P____P___ -1 -21.8602 42.6850 99 -21.9101 43.1054 7 7 144
1893021S14059 1893 5 SI MM NOT_NAMED 1893-01-26 18:00:00 NR -22.1514 43.1385 main 10 0 _____P____O___ -1 -22.1029 42.8770 99 -22.2000 43.4000 7 7 138
1893021S14059 1893 5 SI MM NOT_NAMED 1893-01-26 21:00:00 NR -22.3711 43.3651 main 0 0 _____P____P___ -1 -22.3451 43.1345 99 -22.3971 43.5956 7 6 133
1893021S14059 1893 5 SI MM NOT_NAMED 1893-01-27 00:00:00 NR -22.5662 43.6253 main 0 0 _____P____P___ -1 -22.5800 43.4377 99 -22.5524 43.8129 7 6 127
1893021S14059 1893 5 SI MM NOT_NAMED 1893-01-27 03:00:00 NR -22.7410 43.9075 main 0 0 _____P____P___ -1 -22.8005 43.7663 99 -22.6815 44.0487 7 6 122
1893021S14059 1893 5 SI MM NOT_NAMED 1893-01-27 06:00:00 NR -22.9000 44.2000 reunion main 0 0 _____O____O___ -1 -23.0000 44.1000 99 9.90000 -22.8000 44.3000 7 6 121
1893021S14059 1893 5 SI MM NOT_NAMED 1893-01-27 09:00:00 NR -23.0494 44.4620 main 0 0 _____P____P___ -1 -23.1625 44.3592 99 -22.9363 44.5648 7 6 120
1893021S14059 1893 5 SI MM NOT_NAMED 1893-01-27 12:00:00 NR -23.1860 44.7407 main 0 0 _____P____P___ -1 -23.3069 44.6389 99 -23.0650 44.8426 7 6 117
1893021S14059 1893 5 SI MM NOT_NAMED 1893-01-27 15:00:00 NR -23.3107 45.0285 main 0 0 _____P____P___ -1 -23.4351 44.9329 99 -23.1863 45.1241 7 6 114
1893021S14059 1893 5 SI MM NOT_NAMED 1893-01-27 18:00:00 NR -23.4245 45.3176 main 0 0 _____P____O___ -1 -23.5489 45.2351 99 -23.3000 45.4000 7 6 113
1893021S14059 1893 5 SI MM NOT_NAMED 1893-01-27 21:00:00 NR -23.5285 45.6011 main 0 0 _____P____P___ -1 -23.6503 45.5392 99 -23.4066 45.6630 7 6 113
1893021S14059 1893 5 SI MM NOT_NAMED 1893-01-28 00:00:00 NR -23.6412 45.8714 main 0 0 _____P____P___ -1 -23.7413 45.8388 99 -23.5077 45.9148 7 5 114
1893021S14059 1893 5 SI MM NOT_NAMED 1893-01-28 03:00:00 NR -23.7508 46.1383 main 0 0 _____P____P___ -1 -23.8238 46.1279 99 -23.6049 46.1592 7 5 114
1893021S14059 1893 5 SI MM NOT_NAMED 1893-01-28 06:00:00 NR -23.8600 46.4000 reunion main 0 0 _____O____O___ -1 -23.9000 46.4000 99 9.90000 -23.7000 46.4000 7 5 115
1893021S14059 1893 5 SI MM NOT_NAMED 1893-01-28 09:00:00 NR -23.9717 46.6505 main 0 0 _____P________ -1 -23.9717 46.6505 99 7 5 112
1893021S14059 1893 5 SI MM NOT_NAMED 1893-01-28 12:00:00 NR -24.0396 46.8808 main 0 0 _____P________ -1 -24.0396 46.8808 99 7 4 108
1893021S14059 1893 5 SI MM NOT_NAMED 1893-01-28 15:00:00 NR -24.1045 47.0938 main 0 0 _____P________ -1 -24.1045 47.0938 99 7 4 109
1893021S14059 1893 5 SI MM NOT_NAMED 1893-01-28 18:00:00 NR -24.1668 47.2923 main 0 0 _____P________ -1 -24.1668 47.2923 99 4 109
1893021S14059 1893 5 SI MM NOT_NAMED 1893-01-28 21:00:00 NR -24.2270 47.4792 main 10 10 _____P________ -1 -24.2270 47.4792 99 4 110
1893021S14059 1893 5 SI MM NOT_NAMED 1893-01-29 00:00:00 NR -24.2856 47.6576 main 32 32 _____P________ -1 -24.2856 47.6576 99 3 110
1893021S14059 1893 5 SI MM NOT_NAMED 1893-01-29 03:00:00 NR -24.3431 47.8302 main 42 42 _____P________ -1 -24.3431 47.8302 99 3 110
1893021S14059 1893 5 SI MM NOT_NAMED 1893-01-29 06:00:00 NR -24.4000 48.0000 reunion main 64 _____O________ -1 -24.4000 48.0000 99 9.90000 3 110

IBTrACS Databaseについて

本データベースは、米国NOAAが公開する1842年以降の世界の熱帯低気圧のベストトラックデータアーカイブInternational Best Track Archive for Climate Stewardship (IBTrACS)を、ウェブで閲覧しやすい形式に変換したものです。

最終更新日:2021-12-08